sensor_id;sensor_type;location;lat;lon;timestamp;pressure;altitude;pressure_sealevel;temperature;humidity
9009;BME280;62813;51.424;6.762;2023-07-29T00:01:36;100465.34;;;19.54;84.50
9009;BME280;62813;51.424;6.762;2023-07-29T00:04:03;100466.22;;;19.58;84.72
9009;BME280;62813;51.424;6.762;2023-07-29T00:06:31;100470.38;;;19.56;84.82
9009;BME280;62813;51.424;6.762;2023-07-29T00:08:58;100475.34;;;19.57;84.27
9009;BME280;62813;51.424;6.762;2023-07-29T00:11:25;100480.06;;;19.60;84.66
9009;BME280;62813;51.424;6.762;2023-07-29T00:13:51;100469.69;;;19.59;84.24
9009;BME280;62813;51.424;6.762;2023-07-29T00:16:19;100467.00;;;19.59;84.50
9009;BME280;62813;51.424;6.762;2023-07-29T00:18:49;100462.13;;;19.61;84.09
9009;BME280;62813;51.424;6.762;2023-07-29T00:21:16;100454.44;;;19.59;84.29
9009;BME280;62813;51.424;6.762;2023-07-29T00:23:42;100451.44;;;19.61;84.15
9009;BME280;62813;51.424;6.762;2023-07-29T00:26:09;100443.88;;;19.63;84.39
9009;BME280;62813;51.424;6.762;2023-07-29T00:28:36;100446.09;;;19.61;83.92
9009;BME280;62813;51.424;6.762;2023-07-29T00:31:03;100446.56;;;19.63;83.63
9009;BME280;62813;51.424;6.762;2023-07-29T00:33:29;100445.53;;;19.55;84.32
9009;BME280;62813;51.424;6.762;2023-07-29T00:35:56;100448.50;;;19.54;84.46
9009;BME280;62813;51.424;6.762;2023-07-29T00:38:23;100442.63;;;19.60;84.34
9009;BME280;62813;51.424;6.762;2023-07-29T00:40:50;100443.75;;;19.59;84.31
9009;BME280;62813;51.424;6.762;2023-07-29T00:43:17;100446.56;;;19.63;84.36
9009;BME280;62813;51.424;6.762;2023-07-29T00:45:44;100444.78;;;19.46;84.90
9009;BME280;62813;51.424;6.762;2023-07-29T00:48:11;100448.75;;;19.40;85.28
9009;BME280;62813;51.424;6.762;2023-07-29T00:50:39;100441.81;;;19.48;85.08
9009;BME280;62813;51.424;6.762;2023-07-29T00:53:06;100446.16;;;19.52;84.77
9009;BME280;62813;51.424;6.762;2023-07-29T00:55:33;100446.38;;;19.47;85.40
9009;BME280;62813;51.424;6.762;2023-07-29T00:58:00;100440.03;;;19.52;84.90
9009;BME280;62813;51.424;6.762;2023-07-29T01:00:27;100442.84;;;19.55;84.78
9009;BME280;62813;51.424;6.762;2023-07-29T01:02:56;100434.63;;;19.60;84.50
9009;BME280;62813;51.424;6.762;2023-07-29T01:05:27;100435.16;;;19.54;84.72
9009;BME280;62813;51.424;6.762;2023-07-29T01:08:33;100430.69;;;19.58;85.09
9009;BME280;62813;51.424;6.762;2023-07-29T01:13:58;100429.13;;;19.57;84.74
9009;BME280;62813;51.424;6.762;2023-07-29T01:17:00;100425.03;;;19.59;84.83
9009;BME280;62813;51.424;6.762;2023-07-29T01:22:11;100418.91;;;19.59;84.90
9009;BME280;62813;51.424;6.762;2023-07-29T01:24:40;100404.75;;;19.58;84.68
9009;BME280;62813;51.424;6.762;2023-07-29T01:27:06;100405.44;;;19.55;84.96
9009;BME280;62813;51.424;6.762;2023-07-29T01:29:33;100413.22;;;19.60;84.96
9009;BME280;62813;51.424;6.762;2023-07-29T01:32:06;100417.47;;;19.61;84.83
9009;BME280;62813;51.424;6.762;2023-07-29T01:34:39;100422.34;;;19.59;84.67
9009;BME280;62813;51.424;6.762;2023-07-29T01:37:09;100408.75;;;19.52;84.81
9009;BME280;62813;51.424;6.762;2023-07-29T01:39:38;100409.84;;;19.51;85.17
9009;BME280;62813;51.424;6.762;2023-07-29T01:42:07;100409.53;;;19.53;85.16
9009;BME280;62813;51.424;6.762;2023-07-29T01:44:34;100407.41;;;19.58;84.91
9009;BME280;62813;51.424;6.762;2023-07-29T01:47:02;100414.47;;;19.63;84.94
9009;BME280;62813;51.424;6.762;2023-07-29T01:49:28;100411.78;;;19.63;84.79
9009;BME280;62813;51.424;6.762;2023-07-29T01:51:56;100411.09;;;19.54;84.89
9009;BME280;62813;51.424;6.762;2023-07-29T01:54:22;100412.78;;;19.58;85.14
9009;BME280;62813;51.424;6.762;2023-07-29T01:56:49;100411.19;;;19.57;84.96
9009;BME280;62813;51.424;6.762;2023-07-29T01:59:17;100398.94;;;19.56;84.86
9009;BME280;62813;51.424;6.762;2023-07-29T02:01:44;100396.28;;;19.56;85.25
9009;BME280;62813;51.424;6.762;2023-07-29T02:04:12;100388.25;;;19.56;85.00
9009;BME280;62813;51.424;6.762;2023-07-29T02:06:39;100394.97;;;19.62;85.17
9009;BME280;62813;51.424;6.762;2023-07-29T02:09:06;100383.03;;;19.60;84.80
9009;BME280;62813;51.424;6.762;2023-07-29T02:11:33;100382.25;;;19.59;84.94
9009;BME280;62813;51.424;6.762;2023-07-29T02:13:59;100384.59;;;19.61;85.43
9009;BME280;62813;51.424;6.762;2023-07-29T02:16:26;100386.03;;;19.58;85.50
9009;BME280;62813;51.424;6.762;2023-07-29T02:18:53;100384.94;;;19.59;85.41
9009;BME280;62813;51.424;6.762;2023-07-29T02:21:21;100384.75;;;19.64;85.26
9009;BME280;62813;51.424;6.762;2023-07-29T02:23:48;100386.72;;;19.55;85.58
9009;BME280;62813;51.424;6.762;2023-07-29T02:26:16;100394.38;;;19.57;85.84
9009;BME280;62813;51.424;6.762;2023-07-29T02:28:43;100397.84;;;19.57;85.74
9009;BME280;62813;51.424;6.762;2023-07-29T02:31:17;100398.75;;;19.61;85.82
9009;BME280;62813;51.424;6.762;2023-07-29T02:33:44;100394.19;;;19.62;85.38
9009;BME280;62813;51.424;6.762;2023-07-29T02:36:31;100392.16;;;19.59;85.94
9009;BME280;62813;51.424;6.762;2023-07-29T02:38:57;100383.81;;;19.60;85.85
9009;BME280;62813;51.424;6.762;2023-07-29T02:41:24;100386.25;;;19.53;86.21
9009;BME280;62813;51.424;6.762;2023-07-29T02:43:51;100394.06;;;19.58;86.34
9009;BME280;62813;51.424;6.762;2023-07-29T02:46:18;100390.75;;;19.61;85.98
9009;BME280;62813;51.424;6.762;2023-07-29T02:48:45;100391.06;;;19.60;85.77
9009;BME280;62813;51.424;6.762;2023-07-29T02:51:11;100387.50;;;19.56;86.41
9009;BME280;62813;51.424;6.762;2023-07-29T02:53:38;100384.38;;;19.54;86.72
9009;BME280;62813;51.424;6.762;2023-07-29T02:56:05;100395.84;;;19.54;86.45
9009;BME280;62813;51.424;6.762;2023-07-29T02:58:35;100395.63;;;19.59;86.43
9009;BME280;62813;51.424;6.762;2023-07-29T03:01:04;100396.72;;;19.58;86.52
9009;BME280;62813;51.424;6.762;2023-07-29T03:03:32;100400.66;;;19.61;86.23
9009;BME280;62813;51.424;6.762;2023-07-29T03:06:03;100395.31;;;19.61;86.17
9009;BME280;62813;51.424;6.762;2023-07-29T03:08:30;100393.41;;;19.61;85.97
9009;BME280;62813;51.424;6.762;2023-07-29T03:10:58;100396.41;;;19.60;86.18
9009;BME280;62813;51.424;6.762;2023-07-29T03:13:25;100395.94;;;19.58;85.92
9009;BME280;62813;51.424;6.762;2023-07-29T03:15:51;100401.28;;;19.58;85.97
9009;BME280;62813;51.424;6.762;2023-07-29T03:18:18;100391.06;;;19.60;85.79
9009;BME280;62813;51.424;6.762;2023-07-29T03:20:45;100394.38;;;19.57;85.73
9009;BME280;62813;51.424;6.762;2023-07-29T03:23:12;100398.06;;;19.52;85.97
9009;BME280;62813;51.424;6.762;2023-07-29T03:25:38;100384.81;;;19.56;85.63
9009;BME280;62813;51.424;6.762;2023-07-29T03:28:05;100376.66;;;19.52;86.09
9009;BME280;62813;51.424;6.762;2023-07-29T03:30:32;100373.22;;;19.52;85.85
9009;BME280;62813;51.424;6.762;2023-07-29T03:32:58;100364.88;;;19.53;85.65
9009;BME280;62813;51.424;6.762;2023-07-29T03:35:25;100360.97;;;19.51;85.55
9009;BME280;62813;51.424;6.762;2023-07-29T03:37:52;100379.22;;;19.49;85.63
9009;BME280;62813;51.424;6.762;2023-07-29T03:40:19;100391.47;;;19.50;85.85
9009;BME280;62813;51.424;6.762;2023-07-29T03:42:45;100394.13;;;19.50;85.78
9009;BME280;62813;51.424;6.762;2023-07-29T03:45:12;100386.13;;;19.50;85.96
9009;BME280;62813;51.424;6.762;2023-07-29T03:47:39;100384.22;;;19.50;85.92
9009;BME280;62813;51.424;6.762;2023-07-29T03:50:06;100382.34;;;19.51;85.66
9009;BME280;62813;51.424;6.762;2023-07-29T03:52:32;100375.81;;;19.40;85.47
9009;BME280;62813;51.424;6.762;2023-07-29T03:54:59;100383.31;;;19.46;85.52
9009;BME280;62813;51.424;6.762;2023-07-29T03:57:26;100378.75;;;19.47;85.09
9009;BME280;62813;51.424;6.762;2023-07-29T03:59:53;100380.19;;;19.44;84.74
9009;BME280;62813;51.424;6.762;2023-07-29T04:02:19;100398.09;;;19.44;84.96
9009;BME280;62813;51.424;6.762;2023-07-29T04:04:46;100388.84;;;19.41;84.64
9009;BME280;62813;51.424;6.762;2023-07-29T04:07:14;100381.94;;;19.40;84.31
9009;BME280;62813;51.424;6.762;2023-07-29T04:09:41;100381.59;;;19.42;84.42
9009;BME280;62813;51.424;6.762;2023-07-29T04:12:09;100364.47;;;19.43;84.52
9009;BME280;62813;51.424;6.762;2023-07-29T04:14:36;100367.69;;;19.36;84.80
9009;BME280;62813;51.424;6.762;2023-07-29T04:17:03;100365.19;;;19.31;84.65
9009;BME280;62813;51.424;6.762;2023-07-29T04:19:30;100368.31;;;19.33;84.50
9009;BME280;62813;51.424;6.762;2023-07-29T04:21:57;100380.59;;;19.34;84.78
9009;BME280;62813;51.424;6.762;2023-07-29T04:24:24;100389.84;;;19.37;84.54
9009;BME280;62813;51.424;6.762;2023-07-29T04:26:50;100398.97;;;19.36;84.54
9009;BME280;62813;51.424;6.762;2023-07-29T04:29:17;100407.84;;;19.27;84.32
9009;BME280;62813;51.424;6.762;2023-07-29T04:31:44;100398.03;;;19.32;84.48
9009;BME280;62813;51.424;6.762;2023-07-29T04:34:11;100416.09;;;19.35;84.38
9009;BME280;62813;51.424;6.762;2023-07-29T04:36:38;100411.88;;;19.34;84.38
9009;BME280;62813;51.424;6.762;2023-07-29T04:39:04;100415.97;;;19.31;84.56
9009;BME280;62813;51.424;6.762;2023-07-29T04:41:34;100428.22;;;19.32;84.16
9009;BME280;62813;51.424;6.762;2023-07-29T04:44:01;100428.44;;;19.27;84.21
9009;BME280;62813;51.424;6.762;2023-07-29T04:46:28;100434.88;;;19.26;84.43
9009;BME280;62813;51.424;6.762;2023-07-29T04:48:54;100445.69;;;19.30;83.82
9009;BME280;62813;51.424;6.762;2023-07-29T04:51:21;100435.81;;;19.30;84.17
9009;BME280;62813;51.424;6.762;2023-07-29T04:53:48;100430.78;;;19.28;84.18
9009;BME280;62813;51.424;6.762;2023-07-29T04:56:14;100418.19;;;19.29;83.63
9009;BME280;62813;51.424;6.762;2023-07-29T04:58:58;100411.47;;;19.23;83.98
9009;BME280;62813;51.424;6.762;2023-07-29T05:01:25;100398.91;;;19.23;83.43
9009;BME280;62813;51.424;6.762;2023-07-29T05:03:51;100398.13;;;19.23;83.97
9009;BME280;62813;51.424;6.762;2023-07-29T05:06:18;100381.31;;;19.22;83.09
9009;BME280;62813;51.424;6.762;2023-07-29T05:08:45;100388.03;;;19.28;83.39
9009;BME280;62813;51.424;6.762;2023-07-29T05:11:11;100389.13;;;19.27;83.24
9009;BME280;62813;51.424;6.762;2023-07-29T05:13:38;100393.56;;;19.23;82.87
9009;BME280;62813;51.424;6.762;2023-07-29T05:16:05;100394.47;;;19.27;82.61
9009;BME280;62813;51.424;6.762;2023-07-29T05:18:32;100387.81;;;19.34;82.42
9009;BME280;62813;51.424;6.762;2023-07-29T05:20:58;100397.72;;;19.33;81.83
9009;BME280;62813;51.424;6.762;2023-07-29T05:23:25;100412.00;;;19.37;81.79
9009;BME280;62813;51.424;6.762;2023-07-29T05:25:52;100428.69;;;19.34;81.25
9009;BME280;62813;51.424;6.762;2023-07-29T05:28:19;100428.28;;;19.44;81.70
9009;BME280;62813;51.424;6.762;2023-07-29T05:30:45;100436.94;;;19.41;81.29
9009;BME280;62813;51.424;6.762;2023-07-29T05:33:12;100432.38;;;19.42;81.88
9009;BME280;62813;51.424;6.762;2023-07-29T05:35:39;100444.19;;;19.41;81.99
9009;BME280;62813;51.424;6.762;2023-07-29T05:38:06;100445.19;;;19.36;80.72
9009;BME280;62813;51.424;6.762;2023-07-29T05:40:34;100459.19;;;19.33;80.49
9009;BME280;62813;51.424;6.762;2023-07-29T05:43:01;100460.50;;;19.27;80.97
9009;BME280;62813;51.424;6.762;2023-07-29T05:45:29;100451.28;;;19.16;79.55
9009;BME280;62813;51.424;6.762;2023-07-29T05:47:57;100447.66;;;19.20;79.83
9009;BME280;62813;51.424;6.762;2023-07-29T05:50:24;100458.91;;;19.26;78.62
9009;BME280;62813;51.424;6.762;2023-07-29T05:52:51;100460.69;;;19.22;78.16
9009;BME280;62813;51.424;6.762;2023-07-29T05:55:17;100458.91;;;19.26;77.85
9009;BME280;62813;51.424;6.762;2023-07-29T05:57:44;100468.25;;;19.20;77.01
9009;BME280;62813;51.424;6.762;2023-07-29T06:00:11;100473.28;;;19.21;76.92
9009;BME280;62813;51.424;6.762;2023-07-29T06:02:38;100472.28;;;19.26;76.80
9009;BME280;62813;51.424;6.762;2023-07-29T06:05:04;100476.84;;;19.25;76.31
9009;BME280;62813;51.424;6.762;2023-07-29T06:07:31;100475.53;;;19.11;77.25
9009;BME280;62813;51.424;6.762;2023-07-29T06:10:00;100474.53;;;19.15;77.04
9009;BME280;62813;51.424;6.762;2023-07-29T06:12:27;100481.34;;;19.13;77.10
9009;BME280;62813;51.424;6.762;2023-07-29T06:14:53;100487.84;;;19.24;76.43
9009;BME280;62813;51.424;6.762;2023-07-29T06:17:20;100495.94;;;19.36;76.47
9009;BME280;62813;51.424;6.762;2023-07-29T06:19:47;100503.69;;;19.29;76.53
9009;BME280;62813;51.424;6.762;2023-07-29T06:22:13;100491.97;;;19.21;76.67
9009;BME280;62813;51.424;6.762;2023-07-29T06:24:43;100495.00;;;19.32;76.64
9009;BME280;62813;51.424;6.762;2023-07-29T06:27:09;100493.81;;;19.30;76.71
9009;BME280;62813;51.424;6.762;2023-07-29T06:29:36;100493.44;;;19.31;76.71
9009;BME280;62813;51.424;6.762;2023-07-29T06:32:03;100492.81;;;19.34;76.23
9009;BME280;62813;51.424;6.762;2023-07-29T06:34:30;100502.25;;;19.32;75.42
9009;BME280;62813;51.424;6.762;2023-07-29T06:36:56;100500.03;;;19.34;75.49
9009;BME280;62813;51.424;6.762;2023-07-29T06:39:23;100507.94;;;19.30;75.74
9009;BME280;62813;51.424;6.762;2023-07-29T06:41:50;100508.31;;;19.41;75.46
9009;BME280;62813;51.424;6.762;2023-07-29T06:44:16;100502.94;;;19.49;74.89
9009;BME280;62813;51.424;6.762;2023-07-29T06:46:43;100496.94;;;19.52;74.76
9009;BME280;62813;51.424;6.762;2023-07-29T06:49:10;100498.44;;;19.62;73.41
9009;BME280;62813;51.424;6.762;2023-07-29T06:51:36;100503.13;;;19.65;72.77
9009;BME280;62813;51.424;6.762;2023-07-29T06:54:03;100487.78;;;19.74;72.82
9009;BME280;62813;51.424;6.762;2023-07-29T06:56:30;100491.16;;;19.83;71.97
9009;BME280;62813;51.424;6.762;2023-07-29T06:58:57;100491.44;;;19.90;71.95
9009;BME280;62813;51.424;6.762;2023-07-29T07:01:23;100492.88;;;19.88;71.32
9009;BME280;62813;51.424;6.762;2023-07-29T07:03:50;100490.84;;;19.85;71.73
9009;BME280;62813;51.424;6.762;2023-07-29T07:06:21;100489.00;;;19.97;70.89
9009;BME280;62813;51.424;6.762;2023-07-29T07:08:48;100486.34;;;19.97;70.29
9009;BME280;62813;51.424;6.762;2023-07-29T07:11:15;100486.34;;;20.10;69.54
9009;BME280;62813;51.424;6.762;2023-07-29T07:13:41;100489.72;;;20.07;69.34
9009;BME280;62813;51.424;6.762;2023-07-29T07:16:08;100497.72;;;20.07;68.93
9009;BME280;62813;51.424;6.762;2023-07-29T07:18:35;100496.94;;;20.06;68.73
9009;BME280;62813;51.424;6.762;2023-07-29T07:21:02;100498.16;;;20.09;68.44
9009;BME280;62813;51.424;6.762;2023-07-29T07:23:28;100496.94;;;20.06;68.50
9009;BME280;62813;51.424;6.762;2023-07-29T07:25:55;100498.94;;;19.97;68.51
9009;BME280;62813;51.424;6.762;2023-07-29T07:28:21;100500.31;;;19.82;68.98
9009;BME280;62813;51.424;6.762;2023-07-29T07:30:48;100497.34;;;19.96;68.52
9009;BME280;62813;51.424;6.762;2023-07-29T07:33:15;100494.69;;;20.08;68.55
9009;BME280;62813;51.424;6.762;2023-07-29T07:35:42;100500.09;;;20.20;67.35
9009;BME280;62813;51.424;6.762;2023-07-29T07:38:09;100497.66;;;20.27;67.54
9009;BME280;62813;51.424;6.762;2023-07-29T07:40:36;100493.19;;;20.19;67.13
9009;BME280;62813;51.424;6.762;2023-07-29T07:43:02;100503.41;;;20.38;66.69
9009;BME280;62813;51.424;6.762;2023-07-29T07:45:29;100507.50;;;20.35;66.91
9009;BME280;62813;51.424;6.762;2023-07-29T07:47:56;100505.53;;;20.45;66.69
9009;BME280;62813;51.424;6.762;2023-07-29T07:50:23;100507.66;;;20.51;66.55
9009;BME280;62813;51.424;6.762;2023-07-29T07:52:50;100501.97;;;20.53;66.37
9009;BME280;62813;51.424;6.762;2023-07-29T07:55:17;100506.53;;;20.52;66.53
9009;BME280;62813;51.424;6.762;2023-07-29T07:57:44;100507.00;;;20.54;66.05
9009;BME280;62813;51.424;6.762;2023-07-29T08:00:11;100512.56;;;20.61;67.15
9009;BME280;62813;51.424;6.762;2023-07-29T08:02:37;100505.09;;;20.55;66.68
9009;BME280;62813;51.424;6.762;2023-07-29T08:05:04;100514.91;;;20.63;66.79
9009;BME280;62813;51.424;6.762;2023-07-29T08:07:31;100506.53;;;20.76;65.38
9009;BME280;62813;51.424;6.762;2023-07-29T08:09:58;100501.06;;;20.85;65.96
9009;BME280;62813;51.424;6.762;2023-07-29T08:12:24;100504.22;;;20.99;66.20
9009;BME280;62813;51.424;6.762;2023-07-29T08:14:51;100504.63;;;21.13;65.43
9009;BME280;62813;51.424;6.762;2023-07-29T08:17:18;100504.09;;;21.08;65.92
9009;BME280;62813;51.424;6.762;2023-07-29T08:19:44;100504.63;;;21.13;65.68
9009;BME280;62813;51.424;6.762;2023-07-29T08:22:11;100503.88;;;21.25;65.14
9009;BME280;62813;51.424;6.762;2023-07-29T08:24:38;100514.22;;;21.39;64.90
9009;BME280;62813;51.424;6.762;2023-07-29T08:27:05;100506.75;;;21.32;65.21
9009;BME280;62813;51.424;6.762;2023-07-29T08:29:31;100493.03;;;21.22;64.01
9009;BME280;62813;51.424;6.762;2023-07-29T08:31:58;100502.72;;;21.14;64.13
9009;BME280;62813;51.424;6.762;2023-07-29T08:34:25;100502.41;;;21.15;64.61
9009;BME280;62813;51.424;6.762;2023-07-29T08:36:51;100505.72;;;21.37;64.28
9009;BME280;62813;51.424;6.762;2023-07-29T08:39:18;100501.38;;;21.32;64.23
9009;BME280;62813;51.424;6.762;2023-07-29T08:42:01;100503.38;;;21.35;62.75
9009;BME280;62813;51.424;6.762;2023-07-29T08:44:39;100498.25;;;21.42;62.94
9009;BME280;62813;51.424;6.762;2023-07-29T08:47:06;100490.19;;;21.42;63.09
9009;BME280;62813;51.424;6.762;2023-07-29T08:49:33;100494.06;;;21.57;61.55
9009;BME280;62813;51.424;6.762;2023-07-29T08:52:01;100494.66;;;21.50;62.03
9009;BME280;62813;51.424;6.762;2023-07-29T08:54:27;100494.66;;;21.50;62.72
9009;BME280;62813;51.424;6.762;2023-07-29T08:56:55;100501.22;;;21.53;61.82
9009;BME280;62813;51.424;6.762;2023-07-29T08:59:22;100505.78;;;21.52;63.54
9009;BME280;62813;51.424;6.762;2023-07-29T09:01:50;100502.25;;;21.36;64.08
9009;BME280;62813;51.424;6.762;2023-07-29T09:04:19;100499.38;;;21.29;64.59
9009;BME280;62813;51.424;6.762;2023-07-29T09:06:47;100503.28;;;21.32;63.89
9009;BME280;62813;51.424;6.762;2023-07-29T09:09:14;100513.03;;;21.24;64.63
9009;BME280;62813;51.424;6.762;2023-07-29T09:11:41;100504.41;;;21.19;65.55
9009;BME280;62813;51.424;6.762;2023-07-29T09:14:07;100506.31;;;21.18;64.22
9009;BME280;62813;51.424;6.762;2023-07-29T09:16:35;100522.28;;;21.27;63.86
9009;BME280;62813;51.424;6.762;2023-07-29T09:19:03;100518.25;;;21.21;64.46
9009;BME280;62813;51.424;6.762;2023-07-29T09:21:30;100522.72;;;21.17;64.13
9009;BME280;62813;51.424;6.762;2023-07-29T09:24:02;100524.16;;;21.14;65.29
9009;BME280;62813;51.424;6.762;2023-07-29T09:26:29;100529.19;;;21.15;64.88
9009;BME280;62813;51.424;6.762;2023-07-29T09:28:59;100527.09;;;21.21;64.82
9009;BME280;62813;51.424;6.762;2023-07-29T09:31:28;100526.06;;;21.01;64.40
9009;BME280;62813;51.424;6.762;2023-07-29T09:33:58;100527.22;;;21.00;65.08
9009;BME280;62813;51.424;6.762;2023-07-29T09:36:26;100532.44;;;20.85;65.66
9009;BME280;62813;51.424;6.762;2023-07-29T09:38:54;100531.22;;;20.82;66.52
9009;BME280;62813;51.424;6.762;2023-07-29T09:41:31;100526.88;;;20.90;66.19
9009;BME280;62813;51.424;6.762;2023-07-29T09:43:59;100526.44;;;21.00;66.19
9009;BME280;62813;51.424;6.762;2023-07-29T09:46:35;100528.53;;;21.19;65.84
9009;BME280;62813;51.424;6.762;2023-07-29T09:49:04;100518.72;;;21.35;65.13
9009;BME280;62813;51.424;6.762;2023-07-29T09:51:37;100525.00;;;21.55;64.97
9009;BME280;62813;51.424;6.762;2023-07-29T09:54:04;100516.16;;;21.66;64.29
9009;BME280;62813;51.424;6.762;2023-07-29T09:56:31;100509.59;;;21.79;63.58
9009;BME280;62813;51.424;6.762;2023-07-29T09:58:58;100503.56;;;21.82;63.32
9009;BME280;62813;51.424;6.762;2023-07-29T10:01:26;100496.69;;;21.97;62.94
9009;BME280;62813;51.424;6.762;2023-07-29T10:03:53;100501.59;;;21.95;62.94
9009;BME280;62813;51.424;6.762;2023-07-29T10:06:23;100504.53;;;21.90;62.45
9009;BME280;62813;51.424;6.762;2023-07-29T10:08:50;100505.97;;;22.00;61.61
9009;BME280;62813;51.424;6.762;2023-07-29T10:11:18;100503.53;;;21.95;62.29
9009;BME280;62813;51.424;6.762;2023-07-29T10:13:48;100500.97;;;22.14;62.13
9009;BME280;62813;51.424;6.762;2023-07-29T10:16:36;100493.97;;;22.25;61.63
9009;BME280;62813;51.424;6.762;2023-07-29T10:19:04;100494.16;;;22.32;61.10
9009;BME280;62813;51.424;6.762;2023-07-29T10:21:31;100506.44;;;22.17;61.27
9009;BME280;62813;51.424;6.762;2023-07-29T10:24:01;100505.16;;;22.11;60.94
9009;BME280;62813;51.424;6.762;2023-07-29T10:26:31;100507.75;;;21.96;62.73
9009;BME280;62813;51.424;6.762;2023-07-29T10:29:04;100505.53;;;21.98;62.08
9009;BME280;62813;51.424;6.762;2023-07-29T10:31:35;100500.53;;;22.12;60.87
9009;BME280;62813;51.424;6.762;2023-07-29T10:36:32;100509.75;;;22.26;61.78
9009;BME280;62813;51.424;6.762;2023-07-29T10:38:59;100505.66;;;22.17;61.49
9009;BME280;62813;51.424;6.762;2023-07-29T10:49:40;100488.53;;;22.53;61.40
9009;BME280;62813;51.424;6.762;2023-07-29T10:52:07;100489.56;;;22.33;60.28
9009;BME280;62813;51.424;6.762;2023-07-29T10:54:49;100494.88;;;22.45;61.34
9009;BME280;62813;51.424;6.762;2023-07-29T10:57:30;100486.97;;;22.36;60.58
9009;BME280;62813;51.424;6.762;2023-07-29T10:59:57;100490.69;;;22.32;61.20
9009;BME280;62813;51.424;6.762;2023-07-29T11:02:32;100491.34;;;22.13;61.00
9009;BME280;62813;51.424;6.762;2023-07-29T11:05:00;100489.06;;;22.27;60.40
9009;BME280;62813;51.424;6.762;2023-07-29T11:07:31;100486.97;;;22.36;60.92
9009;BME280;62813;51.424;6.762;2023-07-29T11:10:02;100489.13;;;22.31;60.28
9009;BME280;62813;51.424;6.762;2023-07-29T11:17:52;100494.75;;;22.10;61.28
9009;BME280;62813;51.424;6.762;2023-07-29T11:20:24;100493.09;;;22.21;62.09
9009;BME280;62813;51.424;6.762;2023-07-29T11:22:53;100495.88;;;22.24;61.70
9009;BME280;62813;51.424;6.762;2023-07-29T11:25:22;100496.66;;;22.25;61.66
9009;BME280;62813;51.424;6.762;2023-07-29T11:27:53;100502.31;;;22.36;61.52
9009;BME280;62813;51.424;6.762;2023-07-29T11:30:20;100493.03;;;22.33;61.14
9009;BME280;62813;51.424;6.762;2023-07-29T11:32:47;100495.81;;;22.37;60.89
9009;BME280;62813;51.424;6.762;2023-07-29T11:35:18;100486.03;;;22.44;60.19
9009;BME280;62813;51.424;6.762;2023-07-29T11:37:47;100489.38;;;22.57;59.92
9009;BME280;62813;51.424;6.762;2023-07-29T11:40:26;100483.22;;;22.72;60.24
9009;BME280;62813;51.424;6.762;2023-07-29T11:42:53;100485.69;;;22.77;59.91
9009;BME280;62813;51.424;6.762;2023-07-29T11:45:21;100479.00;;;22.71;59.10
9009;BME280;62813;51.424;6.762;2023-07-29T11:47:57;100479.69;;;22.68;59.38
9009;BME280;62813;51.424;6.762;2023-07-29T11:50:25;100476.56;;;22.82;58.92
9009;BME280;62813;51.424;6.762;2023-07-29T11:52:52;100470.03;;;22.98;58.49
9009;BME280;62813;51.424;6.762;2023-07-29T11:55:19;100473.94;;;23.01;57.81
9009;BME280;62813;51.424;6.762;2023-07-29T11:57:51;100475.06;;;23.00;58.29
9009;BME280;62813;51.424;6.762;2023-07-29T12:00:18;100471.53;;;22.96;56.67
9009;BME280;62813;51.424;6.762;2023-07-29T12:02:45;100476.47;;;22.94;56.41
9009;BME280;62813;51.424;6.762;2023-07-29T12:05:16;100478.53;;;23.00;56.17
9009;BME280;62813;51.424;6.762;2023-07-29T12:07:45;100481.50;;;22.95;56.43
9009;BME280;62813;51.424;6.762;2023-07-29T12:10:12;100471.91;;;22.79;55.55
9009;BME280;62813;51.424;6.762;2023-07-29T12:12:49;100468.06;;;22.80;55.96
9009;BME280;62813;51.424;6.762;2023-07-29T12:15:23;100465.91;;;22.85;56.45
9009;BME280;62813;51.424;6.762;2023-07-29T12:17:53;100476.72;;;22.89;56.59
9009;BME280;62813;51.424;6.762;2023-07-29T12:20:22;100474.81;;;22.89;55.97
9009;BME280;62813;51.424;6.762;2023-07-29T12:22:59;100472.47;;;23.04;56.11
9009;BME280;62813;51.424;6.762;2023-07-29T12:25:28;100467.44;;;23.02;57.57
9009;BME280;62813;51.424;6.762;2023-07-29T12:27:55;100470.69;;;23.11;56.64
9009;BME280;62813;51.424;6.762;2023-07-29T12:30:22;100477.69;;;23.16;56.61
9009;BME280;62813;51.424;6.762;2023-07-29T12:32:51;100477.88;;;23.07;56.61
9009;BME280;62813;51.424;6.762;2023-07-29T12:35:18;100468.34;;;23.10;57.37
9009;BME280;62813;51.424;6.762;2023-07-29T12:37:45;100475.34;;;23.14;57.75
9009;BME280;62813;51.424;6.762;2023-07-29T12:40:23;100469.81;;;22.88;57.81
9009;BME280;62813;51.424;6.762;2023-07-29T12:42:51;100464.97;;;22.78;58.91
9009;BME280;62813;51.424;6.762;2023-07-29T12:45:18;100466.25;;;22.84;58.99
9009;BME280;62813;51.424;6.762;2023-07-29T12:47:45;100468.06;;;22.95;59.55
9009;BME280;62813;51.424;6.762;2023-07-29T12:50:12;100475.41;;;22.98;59.34
9009;BME280;62813;51.424;6.762;2023-07-29T12:52:38;100458.72;;;23.09;58.67
9009;BME280;62813;51.424;6.762;2023-07-29T12:55:06;100452.84;;;23.22;58.77
9009;BME280;62813;51.424;6.762;2023-07-29T12:57:35;100449.97;;;23.12;56.98
9009;BME280;62813;51.424;6.762;2023-07-29T13:00:03;100445.38;;;23.12;57.59
9009;BME280;62813;51.424;6.762;2023-07-29T13:02:31;100453.22;;;23.21;57.24
9009;BME280;62813;51.424;6.762;2023-07-29T13:04:58;100457.16;;;23.08;56.76
9009;BME280;62813;51.424;6.762;2023-07-29T13:07:25;100461.56;;;23.16;56.46
9009;BME280;62813;51.424;6.762;2023-07-29T13:09:51;100461.22;;;23.17;57.37
9009;BME280;62813;51.424;6.762;2023-07-29T13:12:18;100444.78;;;23.22;56.70
9009;BME280;62813;51.424;6.762;2023-07-29T13:14:45;100453.84;;;23.14;57.72
9009;BME280;62813;51.424;6.762;2023-07-29T13:17:12;100456.25;;;23.00;57.68
9009;BME280;62813;51.424;6.762;2023-07-29T13:19:38;100456.72;;;22.86;57.71
9009;BME280;62813;51.424;6.762;2023-07-29T13:22:05;100452.81;;;22.84;57.42
9009;BME280;62813;51.424;6.762;2023-07-29T13:24:32;100453.66;;;22.72;58.26
9009;BME280;62813;51.424;6.762;2023-07-29T13:26:59;100471.03;;;22.59;58.95